Time;durP1;ratioP1;P1;durP2;ratioP2;P2;SDS_P1;SDS_P2;PMS_P1;PMS_P2;Temp;Humidity;BMP_temperature;BMP_pressure;BME280_temperature;BME280_humidity;BME280_pressure;Samples;Min_cycle;Max_cycle;Signal;HPM_P1;HPM_P2
2021/04/04 00:00:43;;;;;;;29.10;8.30;;;3.20;86.30;;;;;;5034622;28;20191;-82
2021/04/04 00:03:21;;;;;;;27.27;7.33;;;3.00;87.00;;;;;;5017612;28;20265;-83
2021/04/04 00:05:53;;;;;;;19.30;6.60;;;3.00;87.00;;;;;;5016622;28;20175;-83
2021/04/04 00:08:24;;;;;;;21.13;7.97;;;3.10;86.70;;;;;;5034237;28;20200;-83
2021/04/04 00:11:00;;;;;;;23.80;6.77;;;3.10;86.60;;;;;;5034176;28;20214;-83
2021/04/04 00:13:34;;;;;;;28.37;7.43;;;3.00;86.50;;;;;;5034322;28;20240;-82
2021/04/04 00:16:05;;;;;;;23.27;7.03;;;3.00;86.90;;;;;;5016493;28;20183;-83
2021/04/04 00:18:33;;;;;;;22.37;5.93;;;3.00;86.90;;;;;;5034153;28;20339;-83
2021/04/04 00:21:10;;;;;;;20.80;6.53;;;3.10;86.60;;;;;;5016550;28;20565;-82
2021/04/04 00:23:38;;;;;;;20.93;6.17;;;3.00;86.70;;;;;;5034142;28;20239;-82
2021/04/04 00:26:05;;;;;;;25.47;5.77;;;3.00;86.50;;;;;;5034100;28;20176;-82
2021/04/04 00:28:38;;;;;;;24.27;6.33;;;3.00;86.20;;;;;;5016364;28;20523;-82
2021/04/04 00:31:12;;;;;;;20.87;5.77;;;3.00;86.10;;;;;;5016203;28;20691;-82
2021/04/04 00:33:44;;;;;;;20.93;7.03;;;3.10;85.80;;;;;;5034249;28;20211;-82
2021/04/04 00:36:14;;;;;;;23.40;5.60;;;3.10;85.40;;;;;;5034051;28;20542;-82
2021/04/04 00:38:51;;;;;;;41.33;6.57;;;3.00;85.50;;;;;;5033783;28;20700;-82
2021/04/04 00:41:17;;;;;;;22.43;6.27;;;3.00;85.30;;;;;;5034225;28;20194;-82
2021/04/04 00:43:54;;;;;;;20.17;6.63;;;2.90;85.70;;;;;;5016038;28;20677;-82
2021/04/04 00:46:30;;;;;;;17.07;6.53;;;2.80;86.10;;;;;;5016030;28;20171;-82
2021/04/04 00:49:01;;;;;;;19.10;6.20;;;2.90;86.00;;;;;;5016781;28;20617;-82
2021/04/04 00:51:34;;;;;;;22.97;6.27;;;2.90;85.70;;;;;;5015847;28;20756;-83
2021/04/04 00:54:01;;;;;;;26.77;6.13;;;2.80;86.00;;;;;;5033745;28;20162;-82
2021/04/04 00:56:28;;;;;;;23.50;6.10;;;2.80;86.30;;;;;;5033767;28;20671;-82
2021/04/04 00:58:58;;;;;;;25.37;7.60;;;2.80;86.30;;;;;;5033730;28;20179;-82
2021/04/04 01:01:35;;;;;;;23.67;7.73;;;2.70;87.00;;;;;;5015562;28;20193;-82
2021/04/04 01:04:01;;;;;;;23.50;7.60;;;2.70;87.30;;;;;;5033571;28;20642;-83
2021/04/04 01:06:34;;;;;;;25.83;6.67;;;2.60;87.40;;;;;;5033624;28;20170;-83
2021/04/04 01:09:12;;;;;;;25.93;6.90;;;2.60;87.80;;;;;;5015613;28;20189;-82
2021/04/04 01:11:51;;;;;;;26.97;7.70;;;2.50;88.30;;;;;;5032870;28;20632;-82
2021/04/04 01:14:33;;;;;;;22.67;7.90;;;2.50;88.80;;;;;;5015129;28;20531;-82
2021/04/04 01:17:07;;;;;;;17.43;5.77;;;2.50;89.30;;;;;;5014741;28;20200;-82
2021/04/04 01:20:06;;;;;;;20.53;7.03;;;2.50;89.30;;;;;;5013994;28;20201;-82
2021/04/04 01:23:03;;;;;;;18.60;7.20;;;2.50;89.50;;;;;;5032457;28;20199;-81
2021/04/04 01:25:54;;;;;;;19.53;7.33;;;2.50;89.70;;;;;;5032534;28;20656;-82
2021/04/04 01:28:34;;;;;;;30.90;7.77;;;2.50;89.30;;;;;;5032393;28;20161;-82
2021/04/04 01:31:07;;;;;;;29.10;6.63;;;2.50;89.30;;;;;;5014661;28;20237;-82
2021/04/04 01:33:41;;;;;;;24.77;7.97;;;2.50;89.50;;;;;;5014601;28;20748;-82
2021/04/04 01:36:17;;;;;;;31.63;7.70;;;2.40;89.60;;;;;;5032278;28;20236;-82
2021/04/04 01:38:53;;;;;;;28.53;8.50;;;2.40;89.80;;;;;;5014475;28;20208;-82
2021/04/04 01:41:30;;;;;;;19.57;6.87;;;2.40;89.70;;;;;;5014488;28;20287;-82
2021/04/04 01:44:03;;;;;;;20.80;6.77;;;2.50;89.70;;;;;;5032300;28;20158;-82
2021/04/04 01:46:35;;;;;;;27.33;7.13;;;2.40;89.50;;;;;;5014528;28;20157;-82
2021/04/04 01:49:04;;;;;;;33.87;7.37;;;2.50;89.30;;;;;;5014474;28;20680;-82
2021/04/04 01:51:36;;;;;;;21.40;7.60;;;2.40;89.10;;;;;;5032182;28;20249;-82
2021/04/04 01:54:10;;;;;;;33.53;7.20;;;2.50;89.00;;;;;;5032057;28;20183;-82
2021/04/04 01:56:49;;;;;;;23.73;6.23;;;2.50;88.80;;;;;;5032308;28;20163;-82
2021/04/04 01:59:20;;;;;;;20.23;5.83;;;2.60;88.60;;;;;;5031962;28;20158;-82
2021/04/04 02:01:54;;;;;;;23.50;5.87;;;2.50;88.40;;;;;;5031999;28;20185;-82
2021/04/04 02:04:23;;;;;;;27.13;7.17;;;2.40;88.60;;;;;;5032044;28;20214;-82
2021/04/04 02:06:50;;;;;;;26.53;6.17;;;2.40;88.50;;;;;;5014285;28;20211;-82
2021/04/04 02:09:17;;;;;;;26.63;6.47;;;2.30;88.60;;;;;;5031879;28;20196;-82
2021/04/04 02:11:45;;;;;;;21.97;6.60;;;2.30;88.70;;;;;;4992510;28;1141161;-82
2021/04/04 02:14:21;;;;;;;30.90;6.30;;;2.30;88.90;;;;;;5032715;28;20191;-82
2021/04/04 02:16:54;;;;;;;45.47;7.97;;;2.20;89.50;;;;;;5032717;28;20691;-82
2021/04/04 02:19:28;;;;;;;32.70;7.70;;;2.30;89.60;;;;;;5032754;28;20177;-82
2021/04/04 02:22:01;;;;;;;22.47;6.33;;;2.30;89.70;;;;;;5032543;28;20195;-82
2021/04/04 02:24:29;;;;;;;22.87;7.67;;;2.30;89.90;;;;;;5014975;28;20185;-82
2021/04/04 02:26:57;;;;;;;29.80;7.77;;;2.30;90.10;;;;;;5032627;28;20181;-82
2021/04/04 02:29:30;;;;;;;37.27;8.90;;;2.30;90.20;;;;;;5032787;28;20300;-82
2021/04/04 02:32:08;;;;;;;25.77;6.67;;;2.30;90.50;;;;;;5035947;28;20287;-82
2021/04/04 02:34:44;;;;;;;27.60;7.17;;;2.40;90.70;;;;;;5018437;28;20216;-82
2021/04/04 02:37:22;;;;;;;31.97;8.77;;;2.40;90.90;;;;;;5036100;28;20251;-82
2021/04/04 02:39:52;;;;;;;21.40;6.37;;;2.40;90.90;;;;;;5036155;28;20165;-82
2021/04/04 02:42:26;;;;;;;29.60;7.13;;;2.50;91.00;;;;;;5035942;28;20195;-82
2021/04/04 02:45:04;;;;;;;35.93;8.37;;;2.60;91.00;;;;;;5018263;28;20210;-82
2021/04/04 02:47:50;;;;;;;42.67;10.53;;;2.70;91.10;;;;;;5018240;28;20185;-82
2021/04/04 02:50:27;;;;;;;26.10;6.77;;;2.80;91.10;;;;;;5018217;28;20176;-82
2021/04/04 02:53:01;;;;;;;34.33;9.10;;;2.80;90.90;;;;;;5035910;28;20165;-82
2021/04/04 02:55:44;;;;;;;28.80;7.10;;;2.90;91.10;;;;;;5035951;28;20592;-82
2021/04/04 02:58:20;;;;;;;30.47;8.80;;;2.90;91.30;;;;;;5017915;28;20212;-82
2021/04/04 03:00:54;;;;;;;27.23;7.13;;;3.00;91.40;;;;;;5035903;28;20207;-82
2021/04/04 03:03:32;;;;;;;34.70;7.17;;;3.10;91.50;;;;;;5035785;28;20180;-82
2021/04/04 03:06:03;;;;;;;30.43;7.80;;;3.10;91.50;;;;;;5035910;28;20165;-82
2021/04/04 03:08:29;;;;;;;35.97;6.77;;;3.20;91.50;;;;;;5035661;28;20643;-82
2021/04/04 03:11:01;;;;;;;35.30;7.97;;;3.30;91.50;;;;;;5035317;28;20280;-82
2021/04/04 03:13:35;;;;;;;27.13;6.87;;;3.30;91.50;;;;;;5017757;28;20557;-82
2021/04/04 03:16:13;;;;;;;35.37;6.90;;;3.30;91.50;;;;;;5035421;28;20192;-82
2021/04/04 03:18:53;;;;;;;37.80;6.63;;;3.40;91.40;;;;;;5035285;28;20691;-82
2021/04/04 03:21:25;;;;;;;17.97;6.07;;;3.50;91.40;;;;;;5017525;28;20202;-82
2021/04/04 03:23:58;;;;;;;30.33;6.20;;;3.60;91.30;;;;;;5035233;28;20176;-82
2021/04/04 03:26:30;;;;;;;35.90;6.20;;;3.60;91.10;;;;;;5035247;28;20626;-82
2021/04/04 03:29:03;;;;;;;25.90;5.73;;;3.60;91.00;;;;;;5035238;28;20268;-82
2021/04/04 03:31:41;;;;;;;28.67;7.00;;;3.70;90.90;;;;;;5017450;28;20201;-82
2021/04/04 03:34:09;;;;;;;26.17;6.73;;;3.70;90.70;;;;;;5035385;28;20165;-82
2021/04/04 03:36:44;;;;;;;21.90;6.07;;;3.70;90.70;;;;;;5035001;28;20180;-83
2021/04/04 03:39:20;;;;;;;30.73;5.93;;;3.80;90.60;;;;;;5017342;28;20182;-82
2021/04/04 03:41:55;;;;;;;40.70;6.27;;;3.80;90.50;;;;;;5034338;28;20665;-82
2021/04/04 03:44:27;;;;;;;33.30;5.60;;;3.90;90.30;;;;;;5034896;28;20182;-82
2021/04/04 03:47:07;;;;;;;32.00;8.30;;;3.90;90.20;;;;;;5034915;28;20202;-82
2021/04/04 03:49:41;;;;;;;34.33;6.73;;;4.00;90.20;;;;;;5017011;28;20563;-82
2021/04/04 03:52:22;;;;;;;36.27;7.27;;;4.00;90.20;;;;;;5034783;28;20224;-82
2021/04/04 03:54:57;;;;;;;26.60;5.83;;;4.00;90.20;;;;;;5034772;28;20168;-82
2021/04/04 03:57:32;;;;;;;29.47;5.67;;;4.00;90.10;;;;;;5034576;28;20214;-82
2021/04/04 04:00:05;;;;;;;31.20;5.67;;;4.00;89.70;;;;;;5034699;28;20218;-82
2021/04/04 04:02:37;;;;;;;39.53;6.13;;;4.10;89.20;;;;;;5034578;28;20289;-83
2021/04/04 04:05:05;;;;;;;22.30;5.20;;;4.20;88.70;;;;;;5034581;28;20265;-82
2021/04/04 04:07:32;;;;;;;25.53;4.97;;;4.10;88.30;;;;;;5034473;28;20264;-82
2021/04/04 04:10:05;;;;;;;22.37;4.47;;;4.20;87.90;;;;;;5034674;28;20184;-82
2021/04/04 04:12:43;;;;;;;19.97;5.33;;;4.20;87.60;;;;;;5016697;28;20298;-82
2021/04/04 04:15:18;;;;;;;14.80;4.97;;;4.20;87.40;;;;;;5016566;28;20239;-82
2021/04/04 04:17:54;;;;;;;26.40;5.73;;;4.20;87.10;;;;;;5034574;28;20200;-82
2021/04/04 04:20:30;;;;;;;20.83;4.20;;;4.20;87.00;;;;;;5016374;28;20182;-82
2021/04/04 04:23:09;;;;;;;29.20;5.37;;;4.30;86.90;;;;;;5034245;28;20616;-83
2021/04/04 04:25:41;;;;;;;20.30;5.53;;;4.20;86.80;;;;;;5034202;28;20262;-82
2021/04/04 04:28:16;;;;;;;25.10;4.97;;;4.30;86.50;;;;;;5016328;28;20180;-82
2021/04/04 04:30:53;;;;;;;21.77;4.33;;;4.20;86.70;;;;;;5016232;28;20198;-82
2021/04/04 04:33:26;;;;;;;19.27;5.47;;;4.30;86.70;;;;;;5034005;28;20183;-82
2021/04/04 04:35:58;;;;;;;23.77;4.70;;;4.30;86.60;;;;;;5033922;28;20237;-82
2021/04/04 04:38:28;;;;;;;11.67;4.23;;;4.20;86.70;;;;;;5016108;28;20221;-82
2021/04/04 04:40:59;;;;;;;20.80;4.67;;;4.20;86.90;;;;;;5016219;28;20238;-82
2021/04/04 04:43:37;;;;;;;26.00;5.17;;;4.20;86.90;;;;;;5016241;28;20168;-82
2021/04/04 04:46:13;;;;;;;19.57;4.20;;;4.30;86.80;;;;;;5016023;28;20285;-82
2021/04/04 04:48:49;;;;;;;20.13;4.90;;;4.30;86.70;;;;;;5033774;28;20210;-82
2021/04/04 04:51:24;;;;;;;23.63;4.97;;;4.30;86.70;;;;;;5016402;28;20203;-82
2021/04/04 04:53:57;;;;;;;22.30;4.90;;;4.30;86.70;;;;;;5016198;28;20182;-82
2021/04/04 04:56:24;;;;;;;17.47;4.23;;;4.30;86.60;;;;;;5015879;28;20186;-82
2021/04/04 04:59:02;;;;;;;24.37;4.93;;;4.30;86.60;;;;;;5033618;28;20204;-82
2021/04/04 05:01:43;;;;;;;17.80;3.90;;;4.30;86.40;;;;;;5033563;28;20648;-82
2021/04/04 05:04:19;;;;;;;18.73;3.67;;;4.40;86.10;;;;;;5016425;28;20202;-82
2021/04/04 05:06:48;;;;;;;20.70;4.63;;;4.30;86.20;;;;;;5033669;28;20547;-82
2021/04/04 05:09:25;;;;;;;19.43;3.80;;;4.40;86.30;;;;;;5033544;28;20180;-82
2021/04/04 05:12:02;;;;;;;21.73;4.23;;;4.40;86.10;;;;;;5015397;28;20251;-82
2021/04/04 05:14:33;;;;;;;22.30;4.83;;;4.40;85.80;;;;;;5033410;28;20186;-82
2021/04/04 05:17:07;;;;;;;17.17;3.90;;;4.50;85.50;;;;;;5015634;28;20640;-82
2021/04/04 05:19:41;;;;;;;15.47;3.33;;;4.50;85.30;;;;;;5033368;28;20712;-82
2021/04/04 05:22:14;;;;;;;25.50;5.87;;;4.60;85.10;;;;;;5015652;28;20677;-82
2021/04/04 05:24:48;;;;;;;18.40;4.27;;;4.60;85.00;;;;;;5033394;28;20168;-82
2021/04/04 05:27:19;;;;;;;13.40;3.70;;;4.60;84.80;;;;;;5033578;28;20203;-82
2021/04/04 05:29:52;;;;;;;12.17;3.47;;;4.60;84.70;;;;;;5015497;28;20210;-82
2021/04/04 05:32:19;;;;;;;20.00;5.30;;;4.60;84.60;;;;;;5033189;28;20200;-83
2021/04/04 05:34:47;;;;;;;16.10;4.03;;;4.70;84.60;;;;;;5015541;28;20555;-82
2021/04/04 05:37:20;;;;;;;21.20;4.10;;;4.70;84.70;;;;;;5015372;28;20683;-82
2021/04/04 05:39:54;;;;;;;18.77;4.50;;;4.80;84.70;;;;;;5015423;28;20175;-82
2021/04/04 05:42:34;;;;;;;16.93;3.70;;;4.70;84.80;;;;;;5033103;28;20196;-82
2021/04/04 05:45:11;;;;;;;23.70;4.53;;;4.70;84.60;;;;;;5033055;28;20171;-82
2021/04/04 05:47:51;;;;;;;21.57;4.40;;;4.80;84.20;;;;;;5033032;28;20192;-82
2021/04/04 05:50:44;;;;;;;18.27;3.63;;;4.80;83.90;;;;;;5015404;28;20593;-82
2021/04/04 05:53:47;;;;;;;18.17;3.53;;;4.80;83.70;;;;;;5033025;28;20175;-82
2021/04/04 05:56:47;;;;;;;19.30;4.77;;;4.90;83.50;;;;;;5033289;28;20245;-82
2021/04/04 05:59:34;;;;;;;19.17;3.97;;;4.90;83.00;;;;;;5033005;28;20178;-82
2021/04/04 06:02:05;;;;;;;15.37;3.60;;;4.90;83.00;;;;;;5032960;28;20218;-82
2021/04/04 06:04:55;;;;;;;16.60;3.60;;;5.00;82.70;;;;;;5032940;28;20179;-82
2021/04/04 06:07:34;;;;;;;18.87;4.27;;;5.00;83.00;;;;;;5036701;28;20179;-82
2021/04/04 06:10:17;;;;;;;13.57;4.50;;;5.00;82.90;;;;;;5036764;28;20187;-82
2021/04/04 06:13:12;;;;;;;19.37;4.17;;;5.00;83.20;;;;;;5036864;28;20274;-82
2021/04/04 06:16:09;;;;;;;21.57;4.87;;;5.00;83.20;;;;;;5018913;28;20266;-82
2021/04/04 06:18:53;;;;;;;30.33;5.00;;;5.00;83.80;;;;;;5036463;28;20295;-82
2021/04/04 06:22:05;;;;;;;21.83;4.97;;;5.00;83.50;;;;;;5036514;28;20199;-82
2021/04/04 06:24:47;;;;;;;15.10;4.27;;;5.00;83.80;;;;;;4956161;29;20214;-82
2021/04/04 06:27:42;;;;;;;15.83;4.00;;;5.10;83.90;;;;;;4956279;29;20204;-82
2021/04/04 06:30:50;;;;;;;12.77;3.73;;;5.00;84.00;;;;;;5023172;28;20196;-82
2021/04/04 06:33:24;;;;;;;18.57;4.87;;;5.00;84.40;;;;;;5036263;28;20658;-82
2021/04/04 06:36:30;;;;;;;17.07;4.33;;;5.10;84.50;;;;;;5019343;28;20184;-82
2021/04/04 06:39:22;;;;;;;21.10;4.90;;;5.10;84.40;;;;;;5036133;28;20679;-82
2021/04/04 06:42:04;;;;;;;19.13;5.30;;;5.00;85.10;;;;;;5018282;28;20200;-82
2021/04/04 06:44:38;;;;;;;21.93;6.00;;;5.00;85.70;;;;;;5036106;28;20172;-82
2021/04/04 06:47:33;;;;;;;31.30;8.20;;;5.00;86.20;;;;;;5018482;28;20201;-82
2021/04/04 06:50:24;;;;;;;22.13;6.70;;;5.00;86.90;;;;;;5018154;28;20175;-82
2021/04/04 06:53:12;;;;;;;27.73;8.73;;;5.00;87.40;;;;;;5018302;28;20647;-82
2021/04/04 06:56:18;;;;;;;21.20;6.40;;;5.10;87.60;;;;;;5035902;28;20300;-82
2021/04/04 06:59:10;;;;;;;22.77;7.53;;;5.10;87.60;;;;;;5035563;28;20208;-82
2021/04/04 07:02:00;;;;;;;32.30;7.73;;;5.20;87.70;;;;;;5035947;28;20219;-82
2021/04/04 07:04:43;;;;;;;18.53;7.53;;;5.20;87.70;;;;;;5035683;28;20185;-82
2021/04/04 07:07:46;;;;;;;26.67;7.13;;;5.30;87.70;;;;;;5017921;28;20187;-83
2021/04/04 07:10:36;;;;;;;32.83;9.03;;;5.40;87.40;;;;;;5017768;28;20191;-83
2021/04/04 07:13:21;;;;;;;26.03;8.70;;;5.40;87.40;;;;;;5035704;28;20226;-82
2021/04/04 07:16:25;;;;;;;24.43;7.87;;;5.30;87.20;;;;;;5036319;28;20176;-82
2021/04/04 07:19:04;;;;;;;29.80;9.00;;;5.30;87.20;;;;;;5035272;28;20204;-82
2021/04/04 07:22:09;;;;;;;24.13;6.93;;;5.30;87.20;;;;;;5035877;28;20192;-82
2021/04/04 07:25:04;;;;;;;29.80;8.57;;;5.30;87.30;;;;;;5035540;28;20184;-83
2021/04/04 07:27:59;;;;;;;19.63;7.93;;;5.30;87.20;;;;;;5035862;28;20275;-82
2021/04/04 07:30:44;;;;;;;17.67;8.50;;;5.40;86.80;;;;;;5035928;28;20183;-82
2021/04/04 07:33:43;;;;;;;22.53;8.60;;;5.50;86.70;;;;;;5017784;28;20238;-83
2021/04/04 07:36:32;;;;;;;23.33;7.87;;;5.50;86.40;;;;;;5017805;28;20230;-82
2021/04/04 07:39:25;;;;;;;22.87;8.00;;;5.60;86.30;;;;;;5035227;28;20193;-82
2021/04/04 07:42:09;;;;;;;21.87;8.77;;;5.60;86.40;;;;;;5017319;28;20262;-82
2021/04/04 07:44:57;;;;;;;32.27;9.00;;;5.60;86.30;;;;;;5035466;28;20153;-83
2021/04/04 07:47:47;;;;;;;25.97;8.80;;;5.70;85.90;;;;;;5035874;28;20173;-82
2021/04/04 07:50:37;;;;;;;28.93;8.43;;;5.70;85.70;;;;;;5035269;28;20400;-81
2021/04/04 07:53:36;;;;;;;24.43;8.13;;;5.60;85.70;;;;;;5035325;28;20176;-82
2021/04/04 07:56:16;;;;;;;23.37;8.77;;;5.70;85.90;;;;;;5035855;28;20165;-83
2021/04/04 07:59:09;;;;;;;26.87;9.63;;;5.70;85.70;;;;;;5036425;28;20568;-82
2021/04/04 08:01:50;;;;;;;19.77;7.67;;;5.70;85.80;;;;;;5034262;28;20669;-82
2021/04/04 08:04:29;;;;;;;22.53;7.13;;;5.70;85.60;;;;;;5016868;28;20230;-82
2021/04/04 08:07:24;;;;;;;18.60;6.27;;;5.70;85.30;;;;;;5034472;28;20172;-81
2021/04/04 08:10:07;;;;;;;17.50;6.40;;;5.70;84.60;;;;;;5021437;28;20188;-81
2021/04/04 08:13:06;;;;;;;21.17;5.90;;;5.70;84.60;;;;;;5034182;28;20208;-81
2021/04/04 08:15:52;;;;;;;9.67;4.73;;;5.70;84.40;;;;;;5034282;28;20267;-82
2021/04/04 08:18:21;;;;;;;17.57;5.33;;;5.70;84.30;;;;;;5017016;28;20207;-82
2021/04/04 08:20:54;;;;;;;12.23;4.87;;;5.80;83.70;;;;;;5016468;28;20291;-82
2021/04/04 08:23:54;;;;;;;14.30;5.00;;;5.90;84.10;;;;;;5016437;28;20268;-81
2021/04/04 08:26:53;;;;;;;22.30;5.20;;;6.00;83.30;;;;;;5034122;28;20174;-82
2021/04/04 08:29:37;;;;;;;14.90;5.03;;;6.00;83.00;;;;;;5033872;28;20176;-81
2021/04/04 08:32:15;;;;;;;12.23;4.07;;;6.10;82.10;;;;;;5034280;28;20223;-82
2021/04/04 08:34:51;;;;;;;16.30;4.60;;;6.00;81.50;;;;;;5033901;28;20180;-82
2021/04/04 08:37:44;;;;;;;11.67;3.63;;;6.00;81.90;;;;;;5033749;28;20196;-82
2021/04/04 08:40:18;;;;;;;16.53;3.60;;;6.10;82.20;;;;;;5016200;28;20648;-81
2021/04/04 08:42:52;;;;;;;13.13;3.67;;;6.20;82.20;;;;;;5033993;28;20176;-81
2021/04/04 08:45:48;;;;;;;10.83;3.53;;;6.20;82.00;;;;;;5016087;28;20173;-82
2021/04/04 08:48:22;;;;;;;12.90;3.43;;;6.20;81.80;;;;;;5033705;28;20553;-81
2021/04/04 08:50:57;;;;;;;11.70;3.87;;;6.30;81.90;;;;;;5033589;28;20691;-82
2021/04/04 08:53:40;;;;;;;13.90;3.60;;;6.40;82.00;;;;;;5016475;28;20597;-81
2021/04/04 08:56:15;;;;;;;11.43;3.20;;;6.30;81.30;;;;;;5033657;28;20172;-82
2021/04/04 08:58:54;;;;;;;17.93;3.07;;;6.30;81.10;;;;;;5033732;28;20203;-81
2021/04/04 09:01:37;;;;;;;9.17;3.30;;;6.40;81.40;;;;;;5015814;28;20274;-81
2021/04/04 09:04:09;;;;;;;12.27;4.03;;;6.40;81.00;;;;;;5015995;28;20641;-81
2021/04/04 09:06:42;;;;;;;12.53;3.20;;;6.40;81.20;;;;;;5015664;28;20200;-81
2021/04/04 09:09:32;;;;;;;18.53;4.83;;;6.50;81.10;;;;;;5015993;28;20176;-81
2021/04/04 09:12:05;;;;;;;15.07;3.67;;;6.50;81.60;;;;;;5033195;28;20223;-81
2021/04/04 09:14:42;;;;;;;15.63;3.67;;;6.50;82.00;;;;;;5033461;28;20174;-82
2021/04/04 09:17:22;;;;;;;16.37;3.80;;;6.60;82.20;;;;;;5033177;28;20235;-81
2021/04/04 09:20:02;;;;;;;19.53;3.97;;;6.70;81.90;;;;;;5033349;28;20185;-81
2021/04/04 09:22:37;;;;;;;17.70;3.47;;;6.70;81.60;;;;;;5015478;28;20761;-82
2021/04/04 09:25:18;;;;;;;20.50;3.43;;;6.80;82.10;;;;;;5033153;28;20186;-83
2021/04/04 09:27:54;;;;;;;14.07;3.03;;;6.90;81.90;;;;;;5015969;28;20182;-82
2021/04/04 09:30:34;;;;;;;13.67;2.90;;;6.80;80.40;;;;;;5033246;28;20669;-81
2021/04/04 09:33:06;;;;;;;12.93;3.07;;;6.80;81.10;;;;;;5033139;28;20185;-81
2021/04/04 09:35:40;;;;;;;12.57;3.20;;;6.70;80.70;;;;;;5033151;28;20568;-81
2021/04/04 09:38:33;;;;;;;15.43;3.03;;;6.70;80.60;;;;;;5015425;28;20206;-81
2021/04/04 09:41:10;;;;;;;11.80;3.13;;;6.70;80.70;;;;;;5035223;28;20197;-81
2021/04/04 09:44:00;;;;;;;14.27;3.43;;;6.80;81.10;;;;;;5037131;28;20181;-81
2021/04/04 09:46:34;;;;;;;14.00;3.80;;;6.90;80.80;;;;;;5037175;28;20696;-81
2021/04/04 09:49:07;;;;;;;14.30;3.10;;;6.90;80.40;;;;;;5020127;28;20174;-81
2021/04/04 09:51:51;;;;;;;16.00;3.07;;;7.00;80.40;;;;;;5036885;28;20202;-81
2021/04/04 09:54:22;;;;;;;16.87;2.77;;;7.00;79.60;;;;;;5037098;28;20266;-81
2021/04/04 09:57:00;;;;;;;15.20;3.33;;;7.20;79.00;;;;;;5037523;28;20183;-81
2021/04/04 09:59:38;;;;;;;10.23;2.70;;;7.30;77.40;;;;;;5036820;28;20666;-81
2021/04/04 10:02:04;;;;;;;10.63;2.93;;;7.30;76.20;;;;;;5037369;28;20202;-82
2021/04/04 10:04:43;;;;;;;12.43;3.40;;;7.30;76.20;;;;;;5021005;28;20301;-82
2021/04/04 10:07:11;;;;;;;9.07;2.70;;;7.30;76.20;;;;;;5021009;28;20177;-81
2021/04/04 10:09:38;;;;;;;15.77;2.80;;;7.30;74.10;;;;;;5038093;28;20183;-82
2021/04/04 10:12:07;;;;;;;12.60;2.50;;;7.40;75.00;;;;;;5019289;28;20310;-82
2021/04/04 10:14:34;;;;;;;13.57;3.20;;;7.50;74.20;;;;;;5037442;28;20230;-81
2021/04/04 10:17:13;;;;;;;12.97;3.07;;;7.30;74.70;;;;;;5036847;28;20267;-82
2021/04/04 10:22:08;;;;;;;11.63;3.00;;;7.40;74.50;;;;;;5035358;28;20214;-87
2021/04/04 10:24:43;;;;;;;13.30;3.10;;;7.40;74.70;;;;;;5018832;28;20257;-87
2021/04/04 10:27:33;;;;;;;15.17;2.77;;;7.40;74.70;;;;;;5036240;28;20176;-87
2021/04/04 10:30:17;;;;;;;11.03;3.20;;;7.30;74.70;;;;;;5018380;28;20282;-86
2021/04/04 10:32:48;;;;;;;11.87;2.87;;;7.30;75.30;;;;;;5018483;28;20175;-86
2021/04/04 10:35:52;;;;;;;6.97;2.47;;;7.30;75.90;;;;;;5018977;28;20639;-86
2021/04/04 10:38:21;;;;;;;15.73;3.13;;;7.30;76.40;;;;;;4995463;28;20223;-85
2021/04/04 10:40:53;;;;;;;12.17;3.03;;;7.20;77.40;;;;;;5018246;28;20249;-86
2021/04/04 10:43:34;;;;;;;12.13;2.90;;;7.10;77.90;;;;;;5018541;28;20234;-85
2021/04/04 10:46:07;;;;;;;10.80;2.97;;;7.10;78.00;;;;;;5036187;28;20175;-84
2021/04/04 10:48:40;;;;;;;13.73;3.17;;;7.10;78.10;;;;;;5018470;28;20531;-85
2021/04/04 10:51:17;;;;;;;13.83;3.53;;;7.20;78.40;;;;;;5035474;28;20274;-84
2021/04/04 10:53:48;;;;;;;13.00;3.40;;;7.20;78.20;;;;;;5035600;28;20160;-85
2021/04/04 10:56:21;;;;;;;12.17;2.73;;;7.30;78.20;;;;;;5018251;28;20182;-85
2021/04/04 10:58:59;;;;;;;10.37;2.70;;;7.50;77.60;;;;;;5017817;28;20200;-85
2021/04/04 11:01:32;;;;;;;22.43;2.67;;;7.50;76.50;;;;;;5035621;28;20307;-86
2021/04/04 11:04:02;;;;;;;13.83;3.20;;;7.60;76.60;;;;;;5017962;28;20655;-85
2021/04/04 11:06:30;;;;;;;9.63;3.23;;;7.80;76.30;;;;;;5035784;28;20178;-85
2021/04/04 11:08:58;;;;;;;8.53;2.50;;;7.70;74.90;;;;;;5035494;28;20667;-86
2021/04/04 11:11:28;;;;;;;10.60;2.40;;;7.70;74.80;;;;;;5017683;28;20199;-86
2021/04/04 11:13:58;;;;;;;8.80;2.53;;;7.70;74.50;;;;;;5035321;28;20221;-86
2021/04/04 11:16:27;;;;;;;9.60;2.10;;;7.80;74.80;;;;;;5035357;28;20313;-86
2021/04/04 11:18:57;;;;;;;6.00;1.93;;;7.70;74.00;;;;;;5017408;28;20231;-86
2021/04/04 11:21:34;;;;;;;4.87;1.70;;;7.50;74.90;;;;;;5017429;28;20216;-85
2021/04/04 11:24:01;;;;;;;11.90;2.10;;;7.60;75.20;;;;;;5035416;28;20167;-85
2021/04/04 11:26:36;;;;;;;6.10;1.80;;;7.80;75.60;;;;;;5017620;28;20203;-85
2021/04/04 11:29:16;;;;;;;9.10;2.33;;;7.80;75.40;;;;;;5017957;28;20174;-85
2021/04/04 11:31:45;;;;;;;9.13;2.23;;;7.80;75.30;;;;;;5017553;28;20583;-85
2021/04/04 11:34:34;;;;;;;7.17;2.10;;;7.80;75.60;;;;;;5017904;28;20176;-84
2021/04/04 11:37:06;;;;;;;5.27;1.83;;;7.80;75.50;;;;;;5018024;28;20184;-85
2021/04/04 11:39:33;;;;;;;11.07;2.67;;;7.70;76.20;;;;;;5035625;28;20180;-85
2021/04/04 11:42:03;;;;;;;6.77;2.00;;;7.60;77.30;;;;;;5035374;28;20556;-85
2021/04/04 11:44:42;;;;;;;5.67;2.00;;;7.50;78.00;;;;;;5035110;28;20199;-85
2021/04/04 11:47:20;;;;;;;7.47;1.80;;;7.60;78.20;;;;;;5017567;28;20207;-85
2021/04/04 11:49:54;;;;;;;5.93;1.57;;;7.70;77.30;;;;;;5035299;28;20159;-85
2021/04/04 11:52:28;;;;;;;3.63;1.57;;;7.70;77.30;;;;;;5017189;28;20180;-85
2021/04/04 11:54:59;;;;;;;5.00;1.90;;;7.50;76.30;;;;;;5035281;28;20701;-87
2021/04/04 11:57:34;;;;;;;5.07;1.97;;;7.70;76.60;;;;;;5034581;28;20315;-88
2021/04/04 12:00:05;;;;;;;4.97;2.00;;;7.60;76.50;;;;;;5016776;28;20667;-87
2021/04/04 12:02:37;;;;;;;5.90;1.80;;;7.50;76.60;;;;;;5016503;28;20169;-88
2021/04/04 12:05:07;;;;;;;5.77;2.30;;;7.70;76.40;;;;;;5016644;28;20226;-88
2021/04/04 12:07:51;;;;;;;9.80;2.57;;;7.60;76.40;;;;;;5034427;28;20185;-88
2021/04/04 12:10:27;;;;;;;5.67;2.30;;;7.50;76.80;;;;;;5016756;28;20199;-88
2021/04/04 12:12:54;;;;;;;7.23;2.30;;;7.60;78.10;;;;;;5016751;28;20582;-88
2021/04/04 12:15:23;;;;;;;6.07;2.37;;;7.80;77.80;;;;;;5034264;28;20186;-87
2021/04/04 12:17:56;;;;;;;4.90;1.37;;;7.80;78.40;;;;;;5016546;28;20214;-87
2021/04/04 12:20:33;;;;;;;3.23;1.50;;;7.80;76.60;;;;;;5034008;28;20209;-87
2021/04/04 12:23:10;;;;;;;5.83;2.73;;;7.90;75.80;;;;;;5016520;28;20186;-86
2021/04/04 12:25:43;;;;;;;4.40;1.97;;;7.90;76.10;;;;;;5034682;28;20214;-87
2021/04/04 12:28:13;;;;;;;9.50;2.10;;;7.80;76.10;;;;;;5016321;28;20222;-87
2021/04/04 12:30:42;;;;;;;7.53;2.30;;;7.80;76.00;;;;;;5033976;28;20195;-87
2021/04/04 12:33:12;;;;;;;10.33;2.87;;;7.70;76.70;;;;;;5034163;28;20233;-88
2021/04/04 12:35:47;;;;;;;6.13;2.20;;;7.70;77.20;;;;;;5034033;28;20190;-87
2021/04/04 12:38:31;;;;;;;4.27;2.50;;;7.50;78.10;;;;;;5033823;28;20206;-87
2021/04/04 12:41:00;;;;;;;10.23;2.60;;;7.40;79.00;;;;;;5033765;28;20735;-86
2021/04/04 12:43:31;;;;;;;7.47;2.30;;;7.50;78.60;;;;;;5016031;28;20179;-87
2021/04/04 12:46:10;;;;;;;8.47;2.87;;;7.50;78.70;;;;;;5033838;28;20171;-87
2021/04/04 12:48:40;;;;;;;11.17;3.20;;;7.60;78.20;;;;;;5016592;28;20199;-87
2021/04/04 12:51:14;;;;;;;5.87;2.10;;;7.80;78.00;;;;;;5015836;28;20202;-87
2021/04/04 12:53:51;;;;;;;8.67;2.53;;;7.90;76.90;;;;;;5033692;28;20179;-87
2021/04/04 12:56:43;;;;;;;7.20;2.23;;;7.80;76.70;;;;;;5033890;28;20171;-87
2021/04/04 12:59:19;;;;;;;6.47;1.90;;;7.80;76.10;;;;;;5033552;28;20201;-87
2021/04/04 13:01:51;;;;;;;6.43;2.23;;;7.80;77.20;;;;;;5033416;28;20246;-86
2021/04/04 13:04:24;;;;;;;7.20;2.33;;;7.80;77.40;;;;;;5015833;28;20175;-87
2021/04/04 13:06:57;;;;;;;12.53;2.20;;;7.90;77.00;;;;;;5033517;28;20647;-87
2021/04/04 13:09:24;;;;;;;9.87;2.70;;;7.80;77.20;;;;;;5033422;28;20186;-86
2021/04/04 13:11:55;;;;;;;10.17;2.30;;;7.70;77.70;;;;;;5015872;28;20191;-86
2021/04/04 13:14:25;;;;;;;7.90;2.60;;;7.70;77.20;;;;;;5032778;28;20178;-86
2021/04/04 13:17:00;;;;;;;10.10;2.43;;;7.80;77.30;;;;;;5032771;28;20517;-85
2021/04/04 13:19:26;;;;;;;8.03;2.10;;;7.90;76.40;;;;;;5032939;28;20658;-85
2021/04/04 13:21:53;;;;;;;4.67;1.90;;;8.10;75.70;;;;;;5015517;28;20269;-86
2021/04/04 13:24:19;;;;;;;8.57;2.47;;;8.20;75.70;;;;;;5034654;28;20207;-85
2021/04/04 13:26:50;;;;;;;14.57;3.17;;;8.00;75.50;;;;;;5016701;28;20249;-85
2021/04/04 13:29:21;;;;;;;6.50;2.27;;;8.00;75.30;;;;;;5033907;28;20226;-85
2021/04/04 13:31:58;;;;;;;9.63;2.50;;;7.80;75.90;;;;;;5015763;28;20253;-85
2021/04/04 13:34:37;;;;;;;10.63;2.70;;;7.90;76.30;;;;;;5016677;28;20184;-84
2021/04/04 13:37:05;;;;;;;7.17;1.93;;;8.00;76.00;;;;;;5033464;28;20184;-85
2021/04/04 13:39:37;;;;;;;4.40;2.07;;;8.00;75.30;;;;;;5033714;28;20180;-85
2021/04/04 13:42:06;;;;;;;7.70;2.77;;;8.00;76.40;;;;;;5033442;28;20186;-85